sensor_id;sensor_type;location;lat;lon;timestamp;temperature;humidity
44695;DHT22;32845;59.422;17.930;2022-10-18T00:00:41;9.20;99.90
44695;DHT22;32845;59.422;17.930;2022-10-18T00:05:12;9.10;99.90
44695;DHT22;32845;59.422;17.930;2022-10-18T00:09:42;9.10;99.90
44695;DHT22;32845;59.422;17.930;2022-10-18T00:14:13;9.20;99.90
44695;DHT22;32845;59.422;17.930;2022-10-18T00:18:44;9.10;99.90
44695;DHT22;32845;59.422;17.930;2022-10-18T00:23:15;9.10;99.90
44695;DHT22;32845;59.422;17.930;2022-10-18T00:27:45;9.10;99.90
44695;DHT22;32845;59.422;17.930;2022-10-18T00:32:16;9.10;99.90
44695;DHT22;32845;59.422;17.930;2022-10-18T00:36:47;9.10;99.90
44695;DHT22;32845;59.422;17.930;2022-10-18T00:41:28;9.10;99.90
44695;DHT22;32845;59.422;17.930;2022-10-18T00:45:59;9.10;99.90
44695;DHT22;32845;59.422;17.930;2022-10-18T00:50:35;9.10;99.90
44695;DHT22;32845;59.422;17.930;2022-10-18T00:55:07;9.10;99.90
44695;DHT22;32845;59.422;17.930;2022-10-18T00:59:40;9.10;99.90
44695;DHT22;32845;59.422;17.930;2022-10-18T01:04:14;9.10;99.90
44695;DHT22;32845;59.422;17.930;2022-10-18T01:13:59;9.00;99.90
44695;DHT22;32845;59.422;17.930;2022-10-18T01:32:41;9.00;99.90
44695;DHT22;32845;59.422;17.930;2022-10-18T01:37:16;9.00;99.90
44695;DHT22;32845;59.422;17.930;2022-10-18T01:41:50;9.00;99.90
44695;DHT22;32845;59.422;17.930;2022-10-18T01:46:24;9.00;99.90
44695;DHT22;32845;59.422;17.930;2022-10-18T01:51:04;8.90;99.90
44695;DHT22;32845;59.422;17.930;2022-10-18T01:55:43;8.90;99.90
44695;DHT22;32845;59.422;17.930;2022-10-18T02:00:33;8.90;99.90
44695;DHT22;32845;59.422;17.930;2022-10-18T02:05:33;8.90;99.90
44695;DHT22;32845;59.422;17.930;2022-10-18T02:14:40;9.00;99.90
44695;DHT22;32845;59.422;17.930;2022-10-18T02:19:17;9.00;99.90
44695;DHT22;32845;59.422;17.930;2022-10-18T02:23:50;9.00;99.90
44695;DHT22;32845;59.422;17.930;2022-10-18T02:28:21;9.00;99.90
44695;DHT22;32845;59.422;17.930;2022-10-18T02:33:00;9.00;99.90
44695;DHT22;32845;59.422;17.930;2022-10-18T02:37:37;8.90;99.90
44695;DHT22;32845;59.422;17.930;2022-10-18T02:42:09;8.90;99.90
44695;DHT22;32845;59.422;17.930;2022-10-18T02:46:40;8.90;99.90
44695;DHT22;32845;59.422;17.930;2022-10-18T02:51:11;8.90;99.90
44695;DHT22;32845;59.422;17.930;2022-10-18T02:55:42;8.90;99.90
44695;DHT22;32845;59.422;17.930;2022-10-18T03:00:14;8.90;99.90
44695;DHT22;32845;59.422;17.930;2022-10-18T03:04:44;8.90;99.90
44695;DHT22;32845;59.422;17.930;2022-10-18T03:09:15;8.90;99.90
44695;DHT22;32845;59.422;17.930;2022-10-18T03:13:46;8.80;99.90
44695;DHT22;32845;59.422;17.930;2022-10-18T03:18:16;8.80;99.90
44695;DHT22;32845;59.422;17.930;2022-10-18T03:22:47;8.80;99.90
44695;DHT22;32845;59.422;17.930;2022-10-18T03:27:18;8.80;99.90
44695;DHT22;32845;59.422;17.930;2022-10-18T03:31:48;8.80;99.90
44695;DHT22;32845;59.422;17.930;2022-10-18T03:36:19;8.80;99.90
44695;DHT22;32845;59.422;17.930;2022-10-18T03:40:50;8.80;99.90
44695;DHT22;32845;59.422;17.930;2022-10-18T03:45:20;8.80;99.90
44695;DHT22;32845;59.422;17.930;2022-10-18T03:49:51;8.70;99.90
44695;DHT22;32845;59.422;17.930;2022-10-18T03:54:22;8.70;99.90
44695;DHT22;32845;59.422;17.930;2022-10-18T03:58:52;8.70;99.90
44695;DHT22;32845;59.422;17.930;2022-10-18T04:03:23;8.70;99.90
44695;DHT22;32845;59.422;17.930;2022-10-18T04:07:54;8.70;99.90
44695;DHT22;32845;59.422;17.930;2022-10-18T04:12:29;8.70;99.90
44695;DHT22;32845;59.422;17.930;2022-10-18T04:17:00;8.70;99.90
44695;DHT22;32845;59.422;17.930;2022-10-18T04:21:31;8.70;99.90
44695;DHT22;32845;59.422;17.930;2022-10-18T04:26:02;8.70;99.90
44695;DHT22;32845;59.422;17.930;2022-10-18T04:30:32;8.70;99.90
44695;DHT22;32845;59.422;17.930;2022-10-18T04:35:04;8.70;99.90
44695;DHT22;32845;59.422;17.930;2022-10-18T04:39:35;8.70;99.90
44695;DHT22;32845;59.422;17.930;2022-10-18T04:44:05;8.70;99.90
44695;DHT22;32845;59.422;17.930;2022-10-18T04:48:36;8.70;99.90
44695;DHT22;32845;59.422;17.930;2022-10-18T04:53:12;8.70;99.90
44695;DHT22;32845;59.422;17.930;2022-10-18T04:57:42;8.70;99.90
44695;DHT22;32845;59.422;17.930;2022-10-18T05:02:18;8.70;99.90
44695;DHT22;32845;59.422;17.930;2022-10-18T05:06:48;8.70;99.90
44695;DHT22;32845;59.422;17.930;2022-10-18T05:11:19;8.70;99.90
44695;DHT22;32845;59.422;17.930;2022-10-18T05:15:50;8.70;99.90
44695;DHT22;32845;59.422;17.930;2022-10-18T05:20:21;8.60;99.90
44695;DHT22;32845;59.422;17.930;2022-10-18T05:24:51;8.60;99.90
44695;DHT22;32845;59.422;17.930;2022-10-18T05:29:22;8.70;99.90
44695;DHT22;32845;59.422;17.930;2022-10-18T05:33:53;8.70;99.90
44695;DHT22;32845;59.422;17.930;2022-10-18T05:38:24;8.70;99.90
44695;DHT22;32845;59.422;17.930;2022-10-18T05:43:00;8.60;99.90
44695;DHT22;32845;59.422;17.930;2022-10-18T05:47:30;8.60;99.90
44695;DHT22;32845;59.422;17.930;2022-10-18T05:52:01;8.60;99.90
44695;DHT22;32845;59.422;17.930;2022-10-18T05:56:32;8.60;99.90
44695;DHT22;32845;59.422;17.930;2022-10-18T06:01:05;8.60;99.90
44695;DHT22;32845;59.422;17.930;2022-10-18T06:05:36;8.70;99.90
44695;DHT22;32845;59.422;17.930;2022-10-18T06:10:07;8.60;99.90
44695;DHT22;32845;59.422;17.930;2022-10-18T06:14:38;8.70;99.90
44695;DHT22;32845;59.422;17.930;2022-10-18T06:19:08;8.60;99.90
44695;DHT22;32845;59.422;17.930;2022-10-18T06:23:48;8.70;99.90
44695;DHT22;32845;59.422;17.930;2022-10-18T06:28:19;8.70;99.90
44695;DHT22;32845;59.422;17.930;2022-10-18T06:32:49;8.70;99.90
44695;DHT22;32845;59.422;17.930;2022-10-18T06:37:20;8.80;99.90
44695;DHT22;32845;59.422;17.930;2022-10-18T06:41:51;8.80;99.90
44695;DHT22;32845;59.422;17.930;2022-10-18T06:46:22;8.80;99.90
44695;DHT22;32845;59.422;17.930;2022-10-18T06:50:54;8.80;99.90
44695;DHT22;32845;59.422;17.930;2022-10-18T06:55:26;8.80;99.90
44695;DHT22;32845;59.422;17.930;2022-10-18T06:59:56;8.80;99.90
44695;DHT22;32845;59.422;17.930;2022-10-18T07:04:28;8.80;99.90
44695;DHT22;32845;59.422;17.930;2022-10-18T07:08:59;8.80;99.90
44695;DHT22;32845;59.422;17.930;2022-10-18T07:13:32;8.90;99.90
44695;DHT22;32845;59.422;17.930;2022-10-18T07:18:03;8.90;99.90
44695;DHT22;32845;59.422;17.930;2022-10-18T07:22:43;8.90;99.90
44695;DHT22;32845;59.422;17.930;2022-10-18T07:27:13;8.90;99.90
44695;DHT22;32845;59.422;17.930;2022-10-18T07:31:44;8.90;99.90
44695;DHT22;32845;59.422;17.930;2022-10-18T07:36:15;8.90;99.90
44695;DHT22;32845;59.422;17.930;2022-10-18T07:40:45;9.00;99.90
44695;DHT22;32845;59.422;17.930;2022-10-18T07:45:16;9.00;99.90
44695;DHT22;32845;59.422;17.930;2022-10-18T07:49:47;9.10;99.90
44695;DHT22;32845;59.422;17.930;2022-10-18T07:54:17;9.20;99.90
44695;DHT22;32845;59.422;17.930;2022-10-18T07:58:50;9.30;99.90
44695;DHT22;32845;59.422;17.930;2022-10-18T08:03:21;9.30;99.90
44695;DHT22;32845;59.422;17.930;2022-10-18T08:07:52;9.30;99.90
44695;DHT22;32845;59.422;17.930;2022-10-18T08:12:23;9.40;99.90
44695;DHT22;32845;59.422;17.930;2022-10-18T08:16:55;9.30;99.90
44695;DHT22;32845;59.422;17.930;2022-10-18T08:21:26;9.30;99.90
44695;DHT22;32845;59.422;17.930;2022-10-18T08:26:03;9.40;99.90
44695;DHT22;32845;59.422;17.930;2022-10-18T08:30:37;9.40;99.90
44695;DHT22;32845;59.422;17.930;2022-10-18T08:35:08;9.40;99.90
44695;DHT22;32845;59.422;17.930;2022-10-18T08:39:39;9.40;99.90
44695;DHT22;32845;59.422;17.930;2022-10-18T08:48:51;9.50;99.90
44695;DHT22;32845;59.422;17.930;2022-10-18T08:53:34;9.50;99.90
44695;DHT22;32845;59.422;17.930;2022-10-18T08:58:20;9.50;99.90
44695;DHT22;32845;59.422;17.930;2022-10-18T09:22:53;9.60;99.90
44695;DHT22;32845;59.422;17.930;2022-10-18T09:27:34;9.70;99.90
44695;DHT22;32845;59.422;17.930;2022-10-18T09:32:22;9.70;99.90
44695;DHT22;32845;59.422;17.930;2022-10-18T09:36:55;9.80;99.90
44695;DHT22;32845;59.422;17.930;2022-10-18T09:42:13;10.00;99.90
44695;DHT22;32845;59.422;17.930;2022-10-18T09:46:29;10.00;99.90
44695;DHT22;32845;59.422;17.930;2022-10-18T09:51:17;10.00;99.90
44695;DHT22;32845;59.422;17.930;2022-10-18T09:57:00;10.00;99.90
44695;DHT22;32845;59.422;17.930;2022-10-18T10:00:57;10.00;99.90
44695;DHT22;32845;59.422;17.930;2022-10-18T10:05:28;10.00;99.90
44695;DHT22;32845;59.422;17.930;2022-10-18T10:14:43;10.00;99.90
44695;DHT22;32845;59.422;17.930;2022-10-18T10:19:30;10.00;99.90
44695;DHT22;32845;59.422;17.930;2022-10-18T10:24:02;10.00;99.90
44695;DHT22;32845;59.422;17.930;2022-10-18T10:28:36;10.00;99.90
44695;DHT22;32845;59.422;17.930;2022-10-18T10:38:02;10.10;99.90
44695;DHT22;32845;59.422;17.930;2022-10-18T10:42:37;10.20;99.90
44695;DHT22;32845;59.422;17.930;2022-10-18T10:47:08;10.20;99.90
44695;DHT22;32845;59.422;17.930;2022-10-18T10:51:39;10.20;99.90
44695;DHT22;32845;59.422;17.930;2022-10-18T10:56:24;10.20;99.90
44695;DHT22;32845;59.422;17.930;2022-10-18T11:00:56;10.20;99.90
44695;DHT22;32845;59.422;17.930;2022-10-18T11:05:27;10.20;99.90
44695;DHT22;32845;59.422;17.930;2022-10-18T11:14:45;10.30;99.90
44695;DHT22;32845;59.422;17.930;2022-10-18T11:19:43;10.20;99.90
44695;DHT22;32845;59.422;17.930;2022-10-18T11:24:19;10.20;99.90
44695;DHT22;32845;59.422;17.930;2022-10-18T11:29:01;10.20;99.90
44695;DHT22;32845;59.422;17.930;2022-10-18T11:33:54;10.20;99.90
44695;DHT22;32845;59.422;17.930;2022-10-18T12:07:57;9.90;99.90
44695;DHT22;32845;59.422;17.930;2022-10-18T12:12:35;9.90;99.90
44695;DHT22;32845;59.422;17.930;2022-10-18T12:22:20;9.80;99.90
44695;DHT22;32845;59.422;17.930;2022-10-18T12:26:59;9.90;99.90
44695;DHT22;32845;59.422;17.930;2022-10-18T12:31:47;10.10;99.90
44695;DHT22;32845;59.422;17.930;2022-10-18T12:40:52;10.10;99.90
44695;DHT22;32845;59.422;17.930;2022-10-18T12:49:59;10.10;99.90
44695;DHT22;32845;59.422;17.930;2022-10-18T12:54:36;10.10;99.90
44695;DHT22;32845;59.422;17.930;2022-10-18T13:03:54;10.00;99.90
44695;DHT22;32845;59.422;17.930;2022-10-18T13:13:17;10.00;99.90
44695;DHT22;32845;59.422;17.930;2022-10-18T13:17:59;10.10;99.90
44695;DHT22;32845;59.422;17.930;2022-10-18T13:37:00;10.10;99.90
44695;DHT22;32845;59.422;17.930;2022-10-18T13:46:10;10.00;99.90
44695;DHT22;32845;59.422;17.930;2022-10-18T13:50:41;10.00;99.90
44695;DHT22;32845;59.422;17.930;2022-10-18T13:55:23;10.00;99.90
44695;DHT22;32845;59.422;17.930;2022-10-18T14:09:43;9.90;99.90
44695;DHT22;32845;59.422;17.930;2022-10-18T14:19:18;9.90;99.90
44695;DHT22;32845;59.422;17.930;2022-10-18T14:23:52;9.80;99.90
44695;DHT22;32845;59.422;17.930;2022-10-18T14:28:23;9.80;99.90
44695;DHT22;32845;59.422;17.930;2022-10-18T14:32:54;9.80;99.90
44695;DHT22;32845;59.422;17.930;2022-10-18T14:42:21;9.70;99.90
44695;DHT22;32845;59.422;17.930;2022-10-18T14:47:03;9.70;99.90
44695;DHT22;32845;59.422;17.930;2022-10-18T14:51:50;9.70;99.90
44695;DHT22;32845;59.422;17.930;2022-10-18T14:56:28;9.70;99.90
44695;DHT22;32845;59.422;17.930;2022-10-18T15:01:00;9.70;99.90
44695;DHT22;32845;59.422;17.930;2022-10-18T15:05:30;9.60;99.90
44695;DHT22;32845;59.422;17.930;2022-10-18T15:10:02;9.60;99.90
44695;DHT22;32845;59.422;17.930;2022-10-18T15:14:34;9.60;99.90
44695;DHT22;32845;59.422;17.930;2022-10-18T15:23:45;9.50;99.90
44695;DHT22;32845;59.422;17.930;2022-10-18T15:28:30;9.40;99.90
44695;DHT22;32845;59.422;17.930;2022-10-18T15:33:04;9.40;99.90
44695;DHT22;32845;59.422;17.930;2022-10-18T15:37:43;9.30;99.90
44695;DHT22;32845;59.422;17.930;2022-10-18T15:42:35;9.30;99.90
44695;DHT22;32845;59.422;17.930;2022-10-18T15:47:17;9.20;99.90
44695;DHT22;32845;59.422;17.930;2022-10-18T15:56:51;9.20;99.90
44695;DHT22;32845;59.422;17.930;2022-10-18T16:01:34;9.10;99.90
44695;DHT22;32845;59.422;17.930;2022-10-18T16:06:07;9.00;99.90
44695;DHT22;32845;59.422;17.930;2022-10-18T16:10:38;9.00;99.90
44695;DHT22;32845;59.422;17.930;2022-10-18T16:15:09;9.00;99.90
44695;DHT22;32845;59.422;17.930;2022-10-18T16:19:39;8.90;99.90
44695;DHT22;32845;59.422;17.930;2022-10-18T16:24:10;8.90;99.90
44695;DHT22;32845;59.422;17.930;2022-10-18T16:28:42;8.90;99.90
44695;DHT22;32845;59.422;17.930;2022-10-18T16:33:13;8.90;99.90
44695;DHT22;32845;59.422;17.930;2022-10-18T16:37:43;8.90;99.90
44695;DHT22;32845;59.422;17.930;2022-10-18T16:42:14;8.80;99.90
44695;DHT22;32845;59.422;17.930;2022-10-18T16:46:45;8.70;99.90
44695;DHT22;32845;59.422;17.930;2022-10-18T16:51:16;8.60;99.90
44695;DHT22;32845;59.422;17.930;2022-10-18T16:55:54;8.50;99.90
44695;DHT22;32845;59.422;17.930;2022-10-18T17:00:25;8.40;99.90
44695;DHT22;32845;59.422;17.930;2022-10-18T17:04:56;8.40;99.90
44695;DHT22;32845;59.422;17.930;2022-10-18T17:09:26;8.30;99.90
44695;DHT22;32845;59.422;17.930;2022-10-18T17:13:57;8.30;99.90
44695;DHT22;32845;59.422;17.930;2022-10-18T17:18:28;8.30;99.90
44695;DHT22;32845;59.422;17.930;2022-10-18T17:23:00;8.30;99.90
44695;DHT22;32845;59.422;17.930;2022-10-18T17:27:30;8.20;99.90
44695;DHT22;32845;59.422;17.930;2022-10-18T17:32:01;8.20;99.90
44695;DHT22;32845;59.422;17.930;2022-10-18T17:36:32;8.10;99.90
44695;DHT22;32845;59.422;17.930;2022-10-18T17:41:08;8.00;99.90
44695;DHT22;32845;59.422;17.930;2022-10-18T17:45:49;8.00;99.90
44695;DHT22;32845;59.422;17.930;2022-10-18T17:50:25;7.90;99.90
44695;DHT22;32845;59.422;17.930;2022-10-18T17:54:56;7.80;99.90
44695;DHT22;32845;59.422;17.930;2022-10-18T17:59:26;7.70;99.90
44695;DHT22;32845;59.422;17.930;2022-10-18T18:04:03;7.70;99.90
44695;DHT22;32845;59.422;17.930;2022-10-18T18:08:34;7.50;99.90
44695;DHT22;32845;59.422;17.930;2022-10-18T18:13:04;7.50;99.90
44695;DHT22;32845;59.422;17.930;2022-10-18T18:17:35;7.50;99.90
44695;DHT22;32845;59.422;17.930;2022-10-18T18:22:06;7.50;99.90
44695;DHT22;32845;59.422;17.930;2022-10-18T18:26:37;7.40;99.90
44695;DHT22;32845;59.422;17.930;2022-10-18T18:31:12;7.40;99.90
44695;DHT22;32845;59.422;17.930;2022-10-18T18:35:42;7.30;99.90
44695;DHT22;32845;59.422;17.930;2022-10-18T18:40:13;7.30;99.90
44695;DHT22;32845;59.422;17.930;2022-10-18T18:44:44;7.30;99.90
44695;DHT22;32845;59.422;17.930;2022-10-18T18:49:15;7.20;99.90
44695;DHT22;32845;59.422;17.930;2022-10-18T18:53:47;7.20;99.90
44695;DHT22;32845;59.422;17.930;2022-10-18T18:58:18;7.10;99.90
44695;DHT22;32845;59.422;17.930;2022-10-18T19:02:49;7.10;99.90
44695;DHT22;32845;59.422;17.930;2022-10-18T19:07:19;7.00;99.90
44695;DHT22;32845;59.422;17.930;2022-10-18T19:11:52;7.00;99.90
44695;DHT22;32845;59.422;17.930;2022-10-18T19:16:28;7.00;99.90
44695;DHT22;32845;59.422;17.930;2022-10-18T19:20:59;7.00;99.90
44695;DHT22;32845;59.422;17.930;2022-10-18T19:25:30;7.00;99.90
44695;DHT22;32845;59.422;17.930;2022-10-18T19:30:04;7.00;99.90
44695;DHT22;32845;59.422;17.930;2022-10-18T19:34:35;7.00;99.90
44695;DHT22;32845;59.422;17.930;2022-10-18T19:39:09;7.00;99.90
44695;DHT22;32845;59.422;17.930;2022-10-18T19:43:41;7.00;99.90
44695;DHT22;32845;59.422;17.930;2022-10-18T19:48:11;6.90;99.90
44695;DHT22;32845;59.422;17.930;2022-10-18T19:52:42;6.70;99.90
44695;DHT22;32845;59.422;17.930;2022-10-18T19:57:13;6.60;99.90
44695;DHT22;32845;59.422;17.930;2022-10-18T20:01:44;6.40;99.90
44695;DHT22;32845;59.422;17.930;2022-10-18T20:06:15;6.20;99.90
44695;DHT22;32845;59.422;17.930;2022-10-18T20:10:45;6.10;99.90
44695;DHT22;32845;59.422;17.930;2022-10-18T20:15:16;6.00;99.90
44695;DHT22;32845;59.422;17.930;2022-10-18T20:19:47;5.90;99.90
44695;DHT22;32845;59.422;17.930;2022-10-18T20:24:23;5.80;99.90
44695;DHT22;32845;59.422;17.930;2022-10-18T20:28:54;5.70;99.90
44695;DHT22;32845;59.422;17.930;2022-10-18T20:33:27;5.80;99.90
44695;DHT22;32845;59.422;17.930;2022-10-18T20:37:58;5.90;99.90
44695;DHT22;32845;59.422;17.930;2022-10-18T20:42:29;6.00;99.90
44695;DHT22;32845;59.422;17.930;2022-10-18T20:46:59;6.00;99.90
44695;DHT22;32845;59.422;17.930;2022-10-18T20:51:30;6.10;99.90
44695;DHT22;32845;59.422;17.930;2022-10-18T20:56:14;6.20;99.90
44695;DHT22;32845;59.422;17.930;2022-10-18T21:00:45;6.20;99.90
44695;DHT22;32845;59.422;17.930;2022-10-18T21:05:16;6.30;99.90
44695;DHT22;32845;59.422;17.930;2022-10-18T21:09:47;6.20;99.90
44695;DHT22;32845;59.422;17.930;2022-10-18T21:14:20;6.30;99.90
44695;DHT22;32845;59.422;17.930;2022-10-18T21:18:51;6.30;99.90
44695;DHT22;32845;59.422;17.930;2022-10-18T21:23:22;6.20;99.90
44695;DHT22;32845;59.422;17.930;2022-10-18T21:27:53;6.20;99.90
44695;DHT22;32845;59.422;17.930;2022-10-18T21:32:23;6.20;99.90
44695;DHT22;32845;59.422;17.930;2022-10-18T21:36:54;6.20;99.90
44695;DHT22;32845;59.422;17.930;2022-10-18T21:41:25;6.10;99.90
44695;DHT22;32845;59.422;17.930;2022-10-18T21:45:57;6.10;99.90
44695;DHT22;32845;59.422;17.930;2022-10-18T21:50:29;6.10;99.90
44695;DHT22;32845;59.422;17.930;2022-10-18T21:54:59;6.00;99.90
44695;DHT22;32845;59.422;17.930;2022-10-18T21:59:30;6.00;99.90
44695;DHT22;32845;59.422;17.930;2022-10-18T22:04:04;6.00;99.90
44695;DHT22;32845;59.422;17.930;2022-10-18T22:08:35;6.00;99.90
44695;DHT22;32845;59.422;17.930;2022-10-18T22:13:06;5.90;99.90
44695;DHT22;32845;59.422;17.930;2022-10-18T22:17:37;5.90;99.90
44695;DHT22;32845;59.422;17.930;2022-10-18T22:22:08;5.90;99.90
44695;DHT22;32845;59.422;17.930;2022-10-18T22:26:40;5.80;99.90
44695;DHT22;32845;59.422;17.930;2022-10-18T22:31:16;5.80;99.90
44695;DHT22;32845;59.422;17.930;2022-10-18T22:35:48;5.80;99.90
44695;DHT22;32845;59.422;17.930;2022-10-18T22:40:19;5.80;99.90
44695;DHT22;32845;59.422;17.930;2022-10-18T22:44:49;5.80;99.90
44695;DHT22;32845;59.422;17.930;2022-10-18T22:49:20;5.80;99.90
44695;DHT22;32845;59.422;17.930;2022-10-18T22:53:51;5.70;99.90
44695;DHT22;32845;59.422;17.930;2022-10-18T22:58:22;5.70;99.90
44695;DHT22;32845;59.422;17.930;2022-10-18T23:03:01;5.70;99.90
44695;DHT22;32845;59.422;17.930;2022-10-18T23:07:32;5.60;99.90
44695;DHT22;32845;59.422;17.930;2022-10-18T23:12:03;5.60;99.90
44695;DHT22;32845;59.422;17.930;2022-10-18T23:16:34;5.60;99.90
44695;DHT22;32845;59.422;17.930;2022-10-18T23:21:11;5.60;99.90
44695;DHT22;32845;59.422;17.930;2022-10-18T23:25:42;5.60;99.90
44695;DHT22;32845;59.422;17.930;2022-10-18T23:30:12;5.60;99.90
44695;DHT22;32845;59.422;17.930;2022-10-18T23:34:43;5.50;99.90
44695;DHT22;32845;59.422;17.930;2022-10-18T23:39:13;5.50;99.90
44695;DHT22;32845;59.422;17.930;2022-10-18T23:43:45;5.50;99.90
44695;DHT22;32845;59.422;17.930;2022-10-18T23:48:15;5.50;99.90
44695;DHT22;32845;59.422;17.930;2022-10-18T23:52:56;5.40;99.90
44695;DHT22;32845;59.422;17.930;2022-10-18T23:57:27;5.40;99.90
